sensor_id;sensor_type;location;lat;lon;timestamp;temperature;humidity
53695;DHT22;39588;51.124;7.190;2023-11-21T00:00:49;8.00;99.90
53695;DHT22;39588;51.124;7.190;2023-11-21T00:03:15;8.00;99.90
53695;DHT22;39588;51.124;7.190;2023-11-21T00:05:41;8.00;99.90
53695;DHT22;39588;51.124;7.190;2023-11-21T00:08:07;8.00;99.90
53695;DHT22;39588;51.124;7.190;2023-11-21T00:10:33;7.90;99.90
53695;DHT22;39588;51.124;7.190;2023-11-21T00:12:59;8.10;99.90
53695;DHT22;39588;51.124;7.190;2023-11-21T00:15:25;8.10;99.90
53695;DHT22;39588;51.124;7.190;2023-11-21T00:25:10;8.20;99.90
53695;DHT22;39588;51.124;7.190;2023-11-21T00:27:36;8.20;99.90
53695;DHT22;39588;51.124;7.190;2023-11-21T00:30:02;8.20;99.90
53695;DHT22;39588;51.124;7.190;2023-11-21T00:32:29;8.20;99.90
53695;DHT22;39588;51.124;7.190;2023-11-21T00:34:55;8.20;99.90
53695;DHT22;39588;51.124;7.190;2023-11-21T00:51:57;8.10;99.90
53695;DHT22;39588;51.124;7.190;2023-11-21T01:01:41;8.20;99.90
53695;DHT22;39588;51.124;7.190;2023-11-21T01:04:07;8.20;99.90
53695;DHT22;39588;51.124;7.190;2023-11-21T01:06:33;8.20;99.90
53695;DHT22;39588;51.124;7.190;2023-11-21T01:08:58;8.20;99.90
53695;DHT22;39588;51.124;7.190;2023-11-21T01:16:16;8.30;99.90
53695;DHT22;39588;51.124;7.190;2023-11-21T01:18:42;8.40;99.90
53695;DHT22;39588;51.124;7.190;2023-11-21T01:21:07;8.40;99.90
53695;DHT22;39588;51.124;7.190;2023-11-21T01:30:53;8.40;99.90
53695;DHT22;39588;51.124;7.190;2023-11-21T01:33:22;8.20;99.90
53695;DHT22;39588;51.124;7.190;2023-11-21T01:38:15;8.00;99.90
53695;DHT22;39588;51.124;7.190;2023-11-21T01:45:35;7.70;99.90
53695;DHT22;39588;51.124;7.190;2023-11-21T01:48:01;7.60;99.90
53695;DHT22;39588;51.124;7.190;2023-11-21T01:52:54;7.60;99.90
53695;DHT22;39588;51.124;7.190;2023-11-21T01:55:20;7.70;99.90
53695;DHT22;39588;51.124;7.190;2023-11-21T02:00:12;7.80;99.90
53695;DHT22;39588;51.124;7.190;2023-11-21T02:02:45;7.90;99.90
53695;DHT22;39588;51.124;7.190;2023-11-21T02:05:12;7.90;99.90
53695;DHT22;39588;51.124;7.190;2023-11-21T02:07:41;8.00;99.90
53695;DHT22;39588;51.124;7.190;2023-11-21T02:10:10;8.00;99.90
53695;DHT22;39588;51.124;7.190;2023-11-21T02:17:41;8.10;99.90
53695;DHT22;39588;51.124;7.190;2023-11-21T02:20:07;8.10;99.90
53695;DHT22;39588;51.124;7.190;2023-11-21T02:22:37;8.10;99.90
53695;DHT22;39588;51.124;7.190;2023-11-21T02:27:30;8.10;99.90
53695;DHT22;39588;51.124;7.190;2023-11-21T02:32:22;8.10;99.90
53695;DHT22;39588;51.124;7.190;2023-11-21T02:34:48;8.20;99.90
53695;DHT22;39588;51.124;7.190;2023-11-21T02:44:34;8.20;99.90
53695;DHT22;39588;51.124;7.190;2023-11-21T02:47:00;8.20;99.90
53695;DHT22;39588;51.124;7.190;2023-11-21T02:49:26;8.30;99.90
53695;DHT22;39588;51.124;7.190;2023-11-21T02:51:54;8.30;99.90
53695;DHT22;39588;51.124;7.190;2023-11-21T02:54:20;8.30;99.90
53695;DHT22;39588;51.124;7.190;2023-11-21T02:56:47;8.20;99.90
53695;DHT22;39588;51.124;7.190;2023-11-21T02:59:14;8.30;99.90
53695;DHT22;39588;51.124;7.190;2023-11-21T03:01:41;8.30;99.90
53695;DHT22;39588;51.124;7.190;2023-11-21T03:04:06;8.10;99.90
53695;DHT22;39588;51.124;7.190;2023-11-21T03:06:32;8.10;99.90
53695;DHT22;39588;51.124;7.190;2023-11-21T03:13:49;8.10;99.90
53695;DHT22;39588;51.124;7.190;2023-11-21T03:16:16;8.10;99.90
53695;DHT22;39588;51.124;7.190;2023-11-21T03:18:41;8.10;99.90
53695;DHT22;39588;51.124;7.190;2023-11-21T03:21:08;8.20;99.90
53695;DHT22;39588;51.124;7.190;2023-11-21T03:23:37;8.20;99.90
53695;DHT22;39588;51.124;7.190;2023-11-21T03:26:03;8.20;99.90
53695;DHT22;39588;51.124;7.190;2023-11-21T03:28:29;9.40;99.90
53695;DHT22;39588;51.124;7.190;2023-11-21T03:33:22;8.20;99.90
53695;DHT22;39588;51.124;7.190;2023-11-21T03:35:48;8.20;99.90
53695;DHT22;39588;51.124;7.190;2023-11-21T03:38:14;8.20;99.90
53695;DHT22;39588;51.124;7.190;2023-11-21T03:40:40;8.10;99.90
53695;DHT22;39588;51.124;7.190;2023-11-21T03:43:05;8.10;99.90
53695;DHT22;39588;51.124;7.190;2023-11-21T03:45:32;8.10;99.90
53695;DHT22;39588;51.124;7.190;2023-11-21T03:47:57;8.10;99.90
53695;DHT22;39588;51.124;7.190;2023-11-21T03:52:49;8.10;99.90
53695;DHT22;39588;51.124;7.190;2023-11-21T03:55:15;8.20;99.90
53695;DHT22;39588;51.124;7.190;2023-11-21T03:57:40;8.20;99.90
53695;DHT22;39588;51.124;7.190;2023-11-21T04:00:07;8.20;99.90
53695;DHT22;39588;51.124;7.190;2023-11-21T04:02:34;8.20;99.90
53695;DHT22;39588;51.124;7.190;2023-11-21T04:05:00;8.20;99.90
53695;DHT22;39588;51.124;7.190;2023-11-21T04:09:52;8.20;99.90
53695;DHT22;39588;51.124;7.190;2023-11-21T04:12:19;8.20;99.90
53695;DHT22;39588;51.124;7.190;2023-11-21T04:14:44;8.20;99.90
53695;DHT22;39588;51.124;7.190;2023-11-21T04:24:29;8.10;99.90
53695;DHT22;39588;51.124;7.190;2023-11-21T04:26:55;8.10;99.90
53695;DHT22;39588;51.124;7.190;2023-11-21T04:36:40;8.10;99.90
53695;DHT22;39588;51.124;7.190;2023-11-21T04:39:06;8.10;99.90
53695;DHT22;39588;51.124;7.190;2023-11-21T04:41:32;8.20;99.90
53695;DHT22;39588;51.124;7.190;2023-11-21T04:43:58;8.10;99.90
53695;DHT22;39588;51.124;7.190;2023-11-21T04:51:18;8.10;99.90
53695;DHT22;39588;51.124;7.190;2023-11-21T04:56:09;8.10;99.90
53695;DHT22;39588;51.124;7.190;2023-11-21T05:05:55;8.10;99.90
53695;DHT22;39588;51.124;7.190;2023-11-21T05:08:21;8.10;99.90
53695;DHT22;39588;51.124;7.190;2023-11-21T05:13:15;8.20;99.90
53695;DHT22;39588;51.124;7.190;2023-11-21T05:15:43;8.20;99.90
53695;DHT22;39588;51.124;7.190;2023-11-21T05:18:09;8.20;99.90
53695;DHT22;39588;51.124;7.190;2023-11-21T05:23:01;8.20;99.90
53695;DHT22;39588;51.124;7.190;2023-11-21T05:25:27;8.20;99.90
53695;DHT22;39588;51.124;7.190;2023-11-21T05:27:53;8.20;99.90
53695;DHT22;39588;51.124;7.190;2023-11-21T05:32:46;8.20;99.90
53695;DHT22;39588;51.124;7.190;2023-11-21T05:35:12;8.20;99.90
53695;DHT22;39588;51.124;7.190;2023-11-21T05:37:41;8.20;99.90
53695;DHT22;39588;51.124;7.190;2023-11-21T05:40:08;8.20;99.90
53695;DHT22;39588;51.124;7.190;2023-11-21T05:42:34;8.20;99.90
53695;DHT22;39588;51.124;7.190;2023-11-21T05:45:01;8.20;99.90
53695;DHT22;39588;51.124;7.190;2023-11-21T05:47:46;8.20;99.90
53695;DHT22;39588;51.124;7.190;2023-11-21T05:50:13;8.10;99.90
53695;DHT22;39588;51.124;7.190;2023-11-21T05:52:44;8.10;99.90
53695;DHT22;39588;51.124;7.190;2023-11-21T05:55:10;8.10;99.90
53695;DHT22;39588;51.124;7.190;2023-11-21T05:57:37;8.00;99.90
53695;DHT22;39588;51.124;7.190;2023-11-21T06:00:07;8.10;99.90
53695;DHT22;39588;51.124;7.190;2023-11-21T06:02:51;8.00;99.90
53695;DHT22;39588;51.124;7.190;2023-11-21T06:05:19;8.00;99.90
53695;DHT22;39588;51.124;7.190;2023-11-21T06:07:45;8.00;99.90
53695;DHT22;39588;51.124;7.190;2023-11-21T06:10:11;8.00;99.90
53695;DHT22;39588;51.124;7.190;2023-11-21T06:15:08;8.00;99.90
53695;DHT22;39588;51.124;7.190;2023-11-21T06:17:35;8.00;99.90
53695;DHT22;39588;51.124;7.190;2023-11-21T06:20:05;8.00;99.90
53695;DHT22;39588;51.124;7.190;2023-11-21T06:22:42;8.10;99.90
53695;DHT22;39588;51.124;7.190;2023-11-21T06:25:08;8.10;99.90
53695;DHT22;39588;51.124;7.190;2023-11-21T06:27:39;8.10;99.90
53695;DHT22;39588;51.124;7.190;2023-11-21T06:30:05;8.10;99.90
53695;DHT22;39588;51.124;7.190;2023-11-21T06:32:35;8.10;99.90
53695;DHT22;39588;51.124;7.190;2023-11-21T06:35:02;8.20;99.90
53695;DHT22;39588;51.124;7.190;2023-11-21T06:37:30;8.20;99.90
53695;DHT22;39588;51.124;7.190;2023-11-21T06:39:56;8.20;99.90
53695;DHT22;39588;51.124;7.190;2023-11-21T06:42:24;8.20;99.90
53695;DHT22;39588;51.124;7.190;2023-11-21T06:44:50;8.20;99.90
53695;DHT22;39588;51.124;7.190;2023-11-21T06:47:19;8.20;99.90
53695;DHT22;39588;51.124;7.190;2023-11-21T06:49:51;8.10;99.90
53695;DHT22;39588;51.124;7.190;2023-11-21T06:52:17;8.10;99.90
53695;DHT22;39588;51.124;7.190;2023-11-21T07:06:54;8.10;99.90
53695;DHT22;39588;51.124;7.190;2023-11-21T07:09:20;8.20;99.90
53695;DHT22;39588;51.124;7.190;2023-11-21T07:11:50;8.20;99.90
53695;DHT22;39588;51.124;7.190;2023-11-21T07:16:44;8.20;99.90
53695;DHT22;39588;51.124;7.190;2023-11-21T07:19:10;8.30;99.90
53695;DHT22;39588;51.124;7.190;2023-11-21T07:21:38;8.30;99.90
53695;DHT22;39588;51.124;7.190;2023-11-21T07:24:05;8.30;99.90
53695;DHT22;39588;51.124;7.190;2023-11-21T07:26:35;8.30;99.90
53695;DHT22;39588;51.124;7.190;2023-11-21T07:29:01;8.30;99.90
53695;DHT22;39588;51.124;7.190;2023-11-21T07:31:28;8.20;99.90
53695;DHT22;39588;51.124;7.190;2023-11-21T07:33:55;8.20;99.90
53695;DHT22;39588;51.124;7.190;2023-11-21T07:36:24;8.30;99.90
53695;DHT22;39588;51.124;7.190;2023-11-21T07:38:50;8.30;99.90
53695;DHT22;39588;51.124;7.190;2023-11-21T07:41:17;8.30;99.90
53695;DHT22;39588;51.124;7.190;2023-11-21T07:43:46;8.30;99.90
53695;DHT22;39588;51.124;7.190;2023-11-21T07:46:12;8.30;99.90
53695;DHT22;39588;51.124;7.190;2023-11-21T07:48:39;8.30;99.90
53695;DHT22;39588;51.124;7.190;2023-11-21T07:53:32;8.40;99.90
53695;DHT22;39588;51.124;7.190;2023-11-21T07:56:02;8.50;99.90
53695;DHT22;39588;51.124;7.190;2023-11-21T07:58:27;8.50;99.90
53695;DHT22;39588;51.124;7.190;2023-11-21T08:00:53;8.60;99.90
53695;DHT22;39588;51.124;7.190;2023-11-21T08:05:46;8.70;99.90
53695;DHT22;39588;51.124;7.190;2023-11-21T08:08:12;8.80;99.90
53695;DHT22;39588;51.124;7.190;2023-11-21T08:10:37;8.80;99.90
53695;DHT22;39588;51.124;7.190;2023-11-21T08:13:05;8.90;99.90
53695;DHT22;39588;51.124;7.190;2023-11-21T08:15:31;8.90;99.90
53695;DHT22;39588;51.124;7.190;2023-11-21T08:17:58;8.90;99.90
53695;DHT22;39588;51.124;7.190;2023-11-21T08:22:50;8.90;99.90
53695;DHT22;39588;51.124;7.190;2023-11-21T08:25:17;8.80;99.90
53695;DHT22;39588;51.124;7.190;2023-11-21T08:27:45;8.80;99.90
53695;DHT22;39588;51.124;7.190;2023-11-21T08:30:11;8.80;99.90
53695;DHT22;39588;51.124;7.190;2023-11-21T08:32:37;8.80;99.90
53695;DHT22;39588;51.124;7.190;2023-11-21T08:35:03;8.80;99.90
53695;DHT22;39588;51.124;7.190;2023-11-21T08:39:58;9.00;99.90
53695;DHT22;39588;51.124;7.190;2023-11-21T08:42:27;9.00;99.90
53695;DHT22;39588;51.124;7.190;2023-11-21T08:44:58;8.90;99.90
53695;DHT22;39588;51.124;7.190;2023-11-21T08:49:50;8.80;99.90
53695;DHT22;39588;51.124;7.190;2023-11-21T08:52:21;8.80;99.90
53695;DHT22;39588;51.124;7.190;2023-11-21T08:54:50;8.90;99.90
53695;DHT22;39588;51.124;7.190;2023-11-21T08:57:25;8.90;99.90
53695;DHT22;39588;51.124;7.190;2023-11-21T08:59:50;8.90;99.90
53695;DHT22;39588;51.124;7.190;2023-11-21T09:02:21;8.90;99.90
53695;DHT22;39588;51.124;7.190;2023-11-21T09:04:49;8.90;99.90
53695;DHT22;39588;51.124;7.190;2023-11-21T09:07:16;8.90;99.90
53695;DHT22;39588;51.124;7.190;2023-11-21T09:12:07;8.90;99.90
53695;DHT22;39588;51.124;7.190;2023-11-21T09:14:37;8.90;99.90
53695;DHT22;39588;51.124;7.190;2023-11-21T09:17:03;9.00;99.90
53695;DHT22;39588;51.124;7.190;2023-11-21T09:19:29;8.90;99.90
53695;DHT22;39588;51.124;7.190;2023-11-21T09:21:54;8.90;99.90
53695;DHT22;39588;51.124;7.190;2023-11-21T09:24:22;9.00;99.90
53695;DHT22;39588;51.124;7.190;2023-11-21T09:31:40;8.90;99.90
53695;DHT22;39588;51.124;7.190;2023-11-21T09:34:05;9.00;99.90
53695;DHT22;39588;51.124;7.190;2023-11-21T09:36:31;9.10;99.90
53695;DHT22;39588;51.124;7.190;2023-11-21T09:41:51;9.20;99.90
53695;DHT22;39588;51.124;7.190;2023-11-21T09:47:07;9.40;99.90
53695;DHT22;39588;51.124;7.190;2023-11-21T09:49:37;9.30;99.90
53695;DHT22;39588;51.124;7.190;2023-11-21T09:52:04;9.30;99.90
53695;DHT22;39588;51.124;7.190;2023-11-21T09:54:32;9.30;99.90
53695;DHT22;39588;51.124;7.190;2023-11-21T09:56:59;9.30;99.90
53695;DHT22;39588;51.124;7.190;2023-11-21T09:59:28;9.30;99.90
53695;DHT22;39588;51.124;7.190;2023-11-21T10:01:56;9.20;99.90
53695;DHT22;39588;51.124;7.190;2023-11-21T10:04:24;9.20;99.90
53695;DHT22;39588;51.124;7.190;2023-11-21T10:06:50;9.30;99.90
53695;DHT22;39588;51.124;7.190;2023-11-21T10:09:17;9.30;99.90
53695;DHT22;39588;51.124;7.190;2023-11-21T10:11:46;9.40;99.90
53695;DHT22;39588;51.124;7.190;2023-11-21T10:14:12;9.40;99.90
53695;DHT22;39588;51.124;7.190;2023-11-21T10:16:40;9.40;99.90
53695;DHT22;39588;51.124;7.190;2023-11-21T10:19:09;9.50;99.90
53695;DHT22;39588;51.124;7.190;2023-11-21T10:21:35;9.50;99.90
53695;DHT22;39588;51.124;7.190;2023-11-21T10:24:01;9.40;99.90
53695;DHT22;39588;51.124;7.190;2023-11-21T10:26:30;9.40;99.90
53695;DHT22;39588;51.124;7.190;2023-11-21T10:29:02;9.40;99.90
53695;DHT22;39588;51.124;7.190;2023-11-21T10:31:31;9.50;99.90
53695;DHT22;39588;51.124;7.190;2023-11-21T10:34:15;9.50;99.90
53695;DHT22;39588;51.124;7.190;2023-11-21T10:36:41;9.50;99.90
53695;DHT22;39588;51.124;7.190;2023-11-21T10:39:07;9.50;99.90
53695;DHT22;39588;51.124;7.190;2023-11-21T10:41:33;9.60;99.90
53695;DHT22;39588;51.124;7.190;2023-11-21T10:43:59;9.50;99.90
53695;DHT22;39588;51.124;7.190;2023-11-21T10:48:54;9.50;99.90
53695;DHT22;39588;51.124;7.190;2023-11-21T10:51:21;9.50;99.90
53695;DHT22;39588;51.124;7.190;2023-11-21T10:53:47;9.50;99.90
53695;DHT22;39588;51.124;7.190;2023-11-21T10:56:18;9.50;99.90
53695;DHT22;39588;51.124;7.190;2023-11-21T10:58:45;9.60;99.90
53695;DHT22;39588;51.124;7.190;2023-11-21T11:06:06;9.70;99.90
53695;DHT22;39588;51.124;7.190;2023-11-21T11:08:37;9.70;99.90
53695;DHT22;39588;51.124;7.190;2023-11-21T11:11:07;9.70;99.90
53695;DHT22;39588;51.124;7.190;2023-11-21T11:13:33;9.80;99.90
53695;DHT22;39588;51.124;7.190;2023-11-21T11:16:00;10.00;99.90
53695;DHT22;39588;51.124;7.190;2023-11-21T11:18:28;10.10;99.90
53695;DHT22;39588;51.124;7.190;2023-11-21T11:21:01;10.00;99.90
53695;DHT22;39588;51.124;7.190;2023-11-21T11:34:29;9.60;99.90
53695;DHT22;39588;51.124;7.190;2023-11-21T11:37:08;9.60;99.90
53695;DHT22;39588;51.124;7.190;2023-11-21T11:39:42;9.70;99.90
53695;DHT22;39588;51.124;7.190;2023-11-21T11:42:12;9.70;99.90
53695;DHT22;39588;51.124;7.190;2023-11-21T11:47:28;9.70;99.90
53695;DHT22;39588;51.124;7.190;2023-11-21T11:50:07;9.70;99.90
53695;DHT22;39588;51.124;7.190;2023-11-21T11:55:00;9.80;99.90
53695;DHT22;39588;51.124;7.190;2023-11-21T11:57:33;9.90;99.90
53695;DHT22;39588;51.124;7.190;2023-11-21T12:02:44;10.10;99.90
53695;DHT22;39588;51.124;7.190;2023-11-21T12:05:11;10.10;99.90
53695;DHT22;39588;51.124;7.190;2023-11-21T12:10:14;10.10;99.90
53695;DHT22;39588;51.124;7.190;2023-11-21T12:15:20;10.20;99.90
53695;DHT22;39588;51.124;7.190;2023-11-21T12:17:46;10.10;99.90
53695;DHT22;39588;51.124;7.190;2023-11-21T12:20:13;10.20;99.90
53695;DHT22;39588;51.124;7.190;2023-11-21T12:22:55;10.30;99.90
53695;DHT22;39588;51.124;7.190;2023-11-21T12:25:23;10.40;99.90
53695;DHT22;39588;51.124;7.190;2023-11-21T12:27:51;10.40;99.90
53695;DHT22;39588;51.124;7.190;2023-11-21T12:30:18;10.30;99.90
53695;DHT22;39588;51.124;7.190;2023-11-21T12:32:47;10.20;99.90
53695;DHT22;39588;51.124;7.190;2023-11-21T12:35:13;10.20;99.90
53695;DHT22;39588;51.124;7.190;2023-11-21T12:37:40;10.10;99.90
53695;DHT22;39588;51.124;7.190;2023-11-21T12:40:09;10.10;99.90
53695;DHT22;39588;51.124;7.190;2023-11-21T12:42:38;10.30;99.90
53695;DHT22;39588;51.124;7.190;2023-11-21T12:45:24;10.40;99.90
53695;DHT22;39588;51.124;7.190;2023-11-21T12:50:26;10.50;99.90
53695;DHT22;39588;51.124;7.190;2023-11-21T12:53:05;10.60;99.90
53695;DHT22;39588;51.124;7.190;2023-11-21T12:55:32;10.50;99.90
53695;DHT22;39588;51.124;7.190;2023-11-21T12:58:01;10.50;99.90
53695;DHT22;39588;51.124;7.190;2023-11-21T13:00:36;10.50;99.90
53695;DHT22;39588;51.124;7.190;2023-11-21T13:03:04;10.50;99.90
53695;DHT22;39588;51.124;7.190;2023-11-21T13:05:34;10.50;99.90
53695;DHT22;39588;51.124;7.190;2023-11-21T13:08:03;10.50;99.90
53695;DHT22;39588;51.124;7.190;2023-11-21T13:10:31;10.40;99.90
53695;DHT22;39588;51.124;7.190;2023-11-21T13:12:58;10.40;99.90
53695;DHT22;39588;51.124;7.190;2023-11-21T13:15:27;10.40;99.90
53695;DHT22;39588;51.124;7.190;2023-11-21T13:17:53;10.40;99.90
53695;DHT22;39588;51.124;7.190;2023-11-21T13:20:19;10.40;99.90
53695;DHT22;39588;51.124;7.190;2023-11-21T13:23:09;10.30;99.90
53695;DHT22;39588;51.124;7.190;2023-11-21T13:30:31;10.00;99.90
53695;DHT22;39588;51.124;7.190;2023-11-21T13:33:03;10.00;99.90
53695;DHT22;39588;51.124;7.190;2023-11-21T13:35:38;9.90;99.90
53695;DHT22;39588;51.124;7.190;2023-11-21T13:38:12;9.90;99.90
53695;DHT22;39588;51.124;7.190;2023-11-21T13:40:40;9.70;99.90
53695;DHT22;39588;51.124;7.190;2023-11-21T13:43:10;9.80;99.90
53695;DHT22;39588;51.124;7.190;2023-11-21T13:45:37;9.80;99.90
53695;DHT22;39588;51.124;7.190;2023-11-21T13:50:38;9.70;99.90
53695;DHT22;39588;51.124;7.190;2023-11-21T13:53:04;9.70;99.90
53695;DHT22;39588;51.124;7.190;2023-11-21T13:55:51;9.60;99.90
53695;DHT22;39588;51.124;7.190;2023-11-21T13:58:22;9.50;99.90
53695;DHT22;39588;51.124;7.190;2023-11-21T14:05:58;9.40;99.90
53695;DHT22;39588;51.124;7.190;2023-11-21T14:08:26;9.40;99.90
53695;DHT22;39588;51.124;7.190;2023-11-21T14:10:54;9.30;99.90
53695;DHT22;39588;51.124;7.190;2023-11-21T14:13:25;9.30;99.90
53695;DHT22;39588;51.124;7.190;2023-11-21T14:18:24;9.30;99.90
53695;DHT22;39588;51.124;7.190;2023-11-21T14:20:52;9.30;99.90
53695;DHT22;39588;51.124;7.190;2023-11-21T14:23:18;9.30;99.90
53695;DHT22;39588;51.124;7.190;2023-11-21T14:30:38;9.40;99.90
53695;DHT22;39588;51.124;7.190;2023-11-21T14:33:05;9.50;99.90
53695;DHT22;39588;51.124;7.190;2023-11-21T14:35:31;9.50;99.90
53695;DHT22;39588;51.124;7.190;2023-11-21T14:37:58;9.50;99.90
53695;DHT22;39588;51.124;7.190;2023-11-21T14:42:51;9.40;99.90
53695;DHT22;39588;51.124;7.190;2023-11-21T14:45:21;9.40;99.90
53695;DHT22;39588;51.124;7.190;2023-11-21T14:47:48;9.40;99.90
53695;DHT22;39588;51.124;7.190;2023-11-21T14:50:41;9.40;99.90
53695;DHT22;39588;51.124;7.190;2023-11-21T14:53:11;9.30;99.90
53695;DHT22;39588;51.124;7.190;2023-11-21T14:55:38;9.40;99.90
53695;DHT22;39588;51.124;7.190;2023-11-21T14:58:13;9.40;99.90
53695;DHT22;39588;51.124;7.190;2023-11-21T15:00:44;9.40;99.90
53695;DHT22;39588;51.124;7.190;2023-11-21T15:03:10;9.40;99.90
53695;DHT22;39588;51.124;7.190;2023-11-21T15:05:52;9.30;99.90
53695;DHT22;39588;51.124;7.190;2023-11-21T15:13:22;9.30;99.90
53695;DHT22;39588;51.124;7.190;2023-11-21T15:15:50;9.20;99.90
53695;DHT22;39588;51.124;7.190;2023-11-21T15:20:42;9.00;99.90
53695;DHT22;39588;51.124;7.190;2023-11-21T15:23:09;9.10;99.90
53695;DHT22;39588;51.124;7.190;2023-11-21T15:25:35;9.00;99.90
53695;DHT22;39588;51.124;7.190;2023-11-21T15:28:04;9.10;99.90
53695;DHT22;39588;51.124;7.190;2023-11-21T15:30:31;9.10;99.90
53695;DHT22;39588;51.124;7.190;2023-11-21T15:32:58;9.10;99.90
53695;DHT22;39588;51.124;7.190;2023-11-21T15:35:23;9.10;99.90
53695;DHT22;39588;51.124;7.190;2023-11-21T15:37:49;9.00;99.90
53695;DHT22;39588;51.124;7.190;2023-11-21T15:40:15;9.00;99.90
53695;DHT22;39588;51.124;7.190;2023-11-21T15:42:42;9.00;99.90
53695;DHT22;39588;51.124;7.190;2023-11-21T15:45:08;9.00;99.90
53695;DHT22;39588;51.124;7.190;2023-11-21T15:47:34;9.10;99.90
53695;DHT22;39588;51.124;7.190;2023-11-21T15:52:29;9.10;99.90
53695;DHT22;39588;51.124;7.190;2023-11-21T15:54:55;9.10;99.90
53695;DHT22;39588;51.124;7.190;2023-11-21T15:57:21;9.00;99.90
53695;DHT22;39588;51.124;7.190;2023-11-21T15:59:47;9.00;99.90
53695;DHT22;39588;51.124;7.190;2023-11-21T16:02:13;9.00;99.90
53695;DHT22;39588;51.124;7.190;2023-11-21T16:07:08;9.00;99.90
53695;DHT22;39588;51.124;7.190;2023-11-21T16:09:36;8.90;99.90
53695;DHT22;39588;51.124;7.190;2023-11-21T16:12:05;8.90;99.90
53695;DHT22;39588;51.124;7.190;2023-11-21T16:14:32;8.90;99.90
53695;DHT22;39588;51.124;7.190;2023-11-21T16:17:02;8.90;99.90
53695;DHT22;39588;51.124;7.190;2023-11-21T16:19:28;8.80;99.90
53695;DHT22;39588;51.124;7.190;2023-11-21T16:26:46;8.90;99.90
53695;DHT22;39588;51.124;7.190;2023-11-21T16:29:13;8.90;99.90
53695;DHT22;39588;51.124;7.190;2023-11-21T16:31:41;8.90;99.90
53695;DHT22;39588;51.124;7.190;2023-11-21T16:34:15;8.80;99.90
53695;DHT22;39588;51.124;7.190;2023-11-21T16:36:41;8.80;99.90
53695;DHT22;39588;51.124;7.190;2023-11-21T16:39:10;8.80;99.90
53695;DHT22;39588;51.124;7.190;2023-11-21T16:41:38;8.70;99.90
53695;DHT22;39588;51.124;7.190;2023-11-21T16:44:03;8.70;99.90
53695;DHT22;39588;51.124;7.190;2023-11-21T16:46:29;8.70;99.90
53695;DHT22;39588;51.124;7.190;2023-11-21T16:48:55;8.60;99.90
53695;DHT22;39588;51.124;7.190;2023-11-21T16:51:21;8.60;99.90
53695;DHT22;39588;51.124;7.190;2023-11-21T16:53:46;8.60;99.90
53695;DHT22;39588;51.124;7.190;2023-11-21T16:56:12;8.50;99.90
53695;DHT22;39588;51.124;7.190;2023-11-21T16:58:38;8.40;99.90
53695;DHT22;39588;51.124;7.190;2023-11-21T17:01:03;8.30;99.90
53695;DHT22;39588;51.124;7.190;2023-11-21T17:03:29;8.30;99.90
53695;DHT22;39588;51.124;7.190;2023-11-21T17:05:56;8.30;99.90
53695;DHT22;39588;51.124;7.190;2023-11-21T17:08:22;8.30;99.90
53695;DHT22;39588;51.124;7.190;2023-11-21T17:10:48;8.30;99.90
53695;DHT22;39588;51.124;7.190;2023-11-21T17:13:17;8.20;99.90
53695;DHT22;39588;51.124;7.190;2023-11-21T17:15:43;8.20;99.90
53695;DHT22;39588;51.124;7.190;2023-11-21T17:18:10;8.10;99.90
53695;DHT22;39588;51.124;7.190;2023-11-21T17:20:36;7.90;99.90
53695;DHT22;39588;51.124;7.190;2023-11-21T17:23:02;7.80;99.90
53695;DHT22;39588;51.124;7.190;2023-11-21T17:25:30;7.80;99.90
53695;DHT22;39588;51.124;7.190;2023-11-21T17:27:56;7.80;99.90
53695;DHT22;39588;51.124;7.190;2023-11-21T17:30:22;7.70;99.90
53695;DHT22;39588;51.124;7.190;2023-11-21T17:32:48;7.70;99.90
53695;DHT22;39588;51.124;7.190;2023-11-21T17:35:14;7.50;99.90
53695;DHT22;39588;51.124;7.190;2023-11-21T17:40:07;7.50;99.90
53695;DHT22;39588;51.124;7.190;2023-11-21T17:42:33;7.50;99.90
53695;DHT22;39588;51.124;7.190;2023-11-21T17:44:59;7.50;99.90
53695;DHT22;39588;51.124;7.190;2023-11-21T17:49:52;7.40;99.90
53695;DHT22;39588;51.124;7.190;2023-11-21T17:52:19;7.40;99.90
53695;DHT22;39588;51.124;7.190;2023-11-21T17:54:46;7.40;99.90
53695;DHT22;39588;51.124;7.190;2023-11-21T17:57:12;7.40;99.90
53695;DHT22;39588;51.124;7.190;2023-11-21T17:59:38;7.40;99.90
53695;DHT22;39588;51.124;7.190;2023-11-21T18:02:10;7.30;99.90
53695;DHT22;39588;51.124;7.190;2023-11-21T18:11:56;7.10;99.90
53695;DHT22;39588;51.124;7.190;2023-11-21T18:16:47;6.80;99.90
53695;DHT22;39588;51.124;7.190;2023-11-21T18:19:13;6.70;99.90
53695;DHT22;39588;51.124;7.190;2023-11-21T18:21:42;6.60;99.90
53695;DHT22;39588;51.124;7.190;2023-11-21T18:24:09;6.50;99.90
53695;DHT22;39588;51.124;7.190;2023-11-21T18:26:35;6.40;99.90
53695;DHT22;39588;51.124;7.190;2023-11-21T18:29:01;6.50;99.90
53695;DHT22;39588;51.124;7.190;2023-11-21T18:31:26;6.50;99.90
53695;DHT22;39588;51.124;7.190;2023-11-21T18:33:53;6.50;99.90
53695;DHT22;39588;51.124;7.190;2023-11-21T18:36:19;6.40;99.90
53695;DHT22;39588;51.124;7.190;2023-11-21T18:38:45;6.40;99.90
53695;DHT22;39588;51.124;7.190;2023-11-21T18:41:11;6.30;99.90
53695;DHT22;39588;51.124;7.190;2023-11-21T18:43:39;6.30;99.90
53695;DHT22;39588;51.124;7.190;2023-11-21T18:46:05;6.30;99.90
53695;DHT22;39588;51.124;7.190;2023-11-21T18:48:31;6.40;99.90
53695;DHT22;39588;51.124;7.190;2023-11-21T18:50:57;6.40;99.90
53695;DHT22;39588;51.124;7.190;2023-11-21T18:53:23;6.40;99.90
53695;DHT22;39588;51.124;7.190;2023-11-21T19:03:07;6.50;99.90
53695;DHT22;39588;51.124;7.190;2023-11-21T19:05:34;6.50;99.90
53695;DHT22;39588;51.124;7.190;2023-11-21T19:08:00;6.50;99.90
53695;DHT22;39588;51.124;7.190;2023-11-21T19:12:55;6.40;99.90
53695;DHT22;39588;51.124;7.190;2023-11-21T19:15:21;6.30;99.90
53695;DHT22;39588;51.124;7.190;2023-11-21T19:17:47;6.30;99.90
53695;DHT22;39588;51.124;7.190;2023-11-21T19:22:39;6.20;99.90
53695;DHT22;39588;51.124;7.190;2023-11-21T19:25:06;6.10;99.90
53695;DHT22;39588;51.124;7.190;2023-11-21T19:30:03;6.10;99.90
53695;DHT22;39588;51.124;7.190;2023-11-21T19:32:30;6.10;99.90
53695;DHT22;39588;51.124;7.190;2023-11-21T19:34:55;6.10;99.90
53695;DHT22;39588;51.124;7.190;2023-11-21T19:37:21;6.10;99.90
53695;DHT22;39588;51.124;7.190;2023-11-21T19:44:43;6.00;99.90
53695;DHT22;39588;51.124;7.190;2023-11-21T19:47:09;6.00;99.90
53695;DHT22;39588;51.124;7.190;2023-11-21T19:59:18;5.80;99.90
53695;DHT22;39588;51.124;7.190;2023-11-21T20:06:40;5.70;99.90
53695;DHT22;39588;51.124;7.190;2023-11-21T20:11:33;5.60;99.90
53695;DHT22;39588;51.124;7.190;2023-11-21T20:13:58;5.60;99.90
53695;DHT22;39588;51.124;7.190;2023-11-21T20:16:28;5.60;99.90
53695;DHT22;39588;51.124;7.190;2023-11-21T20:18:54;5.60;99.90
53695;DHT22;39588;51.124;7.190;2023-11-21T20:21:20;5.70;99.90
53695;DHT22;39588;51.124;7.190;2023-11-21T20:23:47;5.70;99.90
53695;DHT22;39588;51.124;7.190;2023-11-21T20:26:22;5.80;99.90
53695;DHT22;39588;51.124;7.190;2023-11-21T20:28:48;5.80;99.90
53695;DHT22;39588;51.124;7.190;2023-11-21T20:31:15;5.80;99.90
53695;DHT22;39588;51.124;7.190;2023-11-21T20:33:41;5.90;99.90